KSCR/SCR METAR and TAF weather

Enter ICAO airport designator
Station Type Date Time Source
KSCR METAR 2020/01/20 18:55 UTC NOAA

KSCR 201855Z AUTO 03007KT 10SM CLR 02/M11 A3031 RMK AO2 T00231111


Station Type Date Time Source
KSCR Decoded METAR 2020/01/20 18:55 UTC NOAA

Station name not available
Jan 20, 2020 - 01:55 PM EST / 2020.01.20 1855 UTC
Wind: from the NNE (030 degrees) at 8 MPH (7 KT):0
Visibility: 10 mile(s):0
Sky conditions: clear
Temperature: 36.1 F (2.3 C)
Dew Point: 12.0 F (-11.1 C)
Relative Humidity: 36%
Pressure (altimeter): 30.31 in. Hg (1026 hPa)
ob: KSCR 201855Z AUTO 03007KT 10SM CLR 02/M11 A3031 RMK AO2 T00231111
cycle: 19

Station Type Date Time Source
KSCR TAF UTC NOAA

Error!

Example: see airport list